sensor_id;sensor_type;location;lat;lon;timestamp;temperature;humidity
31133;DHT22;17779;50.942;4.026;2023-03-01T00:01:00;1.40;99.90
31133;DHT22;17779;50.942;4.026;2023-03-01T00:03:26;1.10;99.90
31133;DHT22;17779;50.942;4.026;2023-03-01T00:05:52;1.00;99.90
31133;DHT22;17779;50.942;4.026;2023-03-01T00:08:18;0.90;99.90
31133;DHT22;17779;50.942;4.026;2023-03-01T00:10:44;0.90;99.90
31133;DHT22;17779;50.942;4.026;2023-03-01T00:13:10;1.00;99.90
31133;DHT22;17779;50.942;4.026;2023-03-01T00:15:38;1.30;99.90
31133;DHT22;17779;50.942;4.026;2023-03-01T00:18:03;1.00;99.90
31133;DHT22;17779;50.942;4.026;2023-03-01T00:20:29;1.00;99.90
31133;DHT22;17779;50.942;4.026;2023-03-01T00:22:55;1.00;99.90
31133;DHT22;17779;50.942;4.026;2023-03-01T00:25:20;0.80;99.90
31133;DHT22;17779;50.942;4.026;2023-03-01T00:27:46;0.90;99.90
31133;DHT22;17779;50.942;4.026;2023-03-01T00:30:14;1.20;99.90
31133;DHT22;17779;50.942;4.026;2023-03-01T00:32:40;1.20;99.90
31133;DHT22;17779;50.942;4.026;2023-03-01T00:35:06;1.10;99.90
31133;DHT22;17779;50.942;4.026;2023-03-01T00:37:31;1.00;99.90
31133;DHT22;17779;50.942;4.026;2023-03-01T00:39:57;1.10;99.90
31133;DHT22;17779;50.942;4.026;2023-03-01T00:42:23;1.20;99.90
31133;DHT22;17779;50.942;4.026;2023-03-01T00:44:49;1.30;99.90
31133;DHT22;17779;50.942;4.026;2023-03-01T00:47:15;1.20;99.90
31133;DHT22;17779;50.942;4.026;2023-03-01T00:49:40;0.90;99.90
31133;DHT22;17779;50.942;4.026;2023-03-01T00:52:06;0.70;99.90
31133;DHT22;17779;50.942;4.026;2023-03-01T00:54:32;0.50;99.90
31133;DHT22;17779;50.942;4.026;2023-03-01T00:56:57;0.50;99.90
31133;DHT22;17779;50.942;4.026;2023-03-01T00:59:23;0.40;99.90
31133;DHT22;17779;50.942;4.026;2023-03-01T01:01:49;0.40;99.90
31133;DHT22;17779;50.942;4.026;2023-03-01T01:04:14;0.40;99.90
31133;DHT22;17779;50.942;4.026;2023-03-01T01:06:41;0.30;99.90
31133;DHT22;17779;50.942;4.026;2023-03-01T01:09:08;0.40;99.90
31133;DHT22;17779;50.942;4.026;2023-03-01T01:11:34;0.40;99.90
31133;DHT22;17779;50.942;4.026;2023-03-01T01:14:03;0.50;99.90
31133;DHT22;17779;50.942;4.026;2023-03-01T01:16:29;0.60;99.90
31133;DHT22;17779;50.942;4.026;2023-03-01T01:18:55;0.60;99.90
31133;DHT22;17779;50.942;4.026;2023-03-01T01:21:22;0.70;99.90
31133;DHT22;17779;50.942;4.026;2023-03-01T01:23:49;0.50;99.90
31133;DHT22;17779;50.942;4.026;2023-03-01T01:26:16;0.40;99.90
31133;DHT22;17779;50.942;4.026;2023-03-01T01:28:42;0.40;99.90
31133;DHT22;17779;50.942;4.026;2023-03-01T01:31:08;0.60;99.90
31133;DHT22;17779;50.942;4.026;2023-03-01T01:33:35;0.60;99.90
31133;DHT22;17779;50.942;4.026;2023-03-01T01:36:03;0.70;99.90
31133;DHT22;17779;50.942;4.026;2023-03-01T01:38:28;0.70;99.90
31133;DHT22;17779;50.942;4.026;2023-03-01T01:40:54;0.60;99.90
31133;DHT22;17779;50.942;4.026;2023-03-01T01:45:46;0.30;99.90
31133;DHT22;17779;50.942;4.026;2023-03-01T01:48:13;0.30;99.90
31133;DHT22;17779;50.942;4.026;2023-03-01T01:50:40;0.50;99.90
31133;DHT22;17779;50.942;4.026;2023-03-01T01:53:09;0.60;99.90
31133;DHT22;17779;50.942;4.026;2023-03-01T01:55:36;0.50;99.90
31133;DHT22;17779;50.942;4.026;2023-03-01T01:58:03;0.60;99.90
31133;DHT22;17779;50.942;4.026;2023-03-01T02:00:30;0.60;99.90
31133;DHT22;17779;50.942;4.026;2023-03-01T02:02:58;0.50;99.90
31133;DHT22;17779;50.942;4.026;2023-03-01T02:05:26;0.60;99.90
31133;DHT22;17779;50.942;4.026;2023-03-01T02:07:54;0.50;99.90
31133;DHT22;17779;50.942;4.026;2023-03-01T02:10:20;0.60;99.90
31133;DHT22;17779;50.942;4.026;2023-03-01T02:12:46;0.40;99.90
31133;DHT22;17779;50.942;4.026;2023-03-01T02:15:12;0.50;99.90
31133;DHT22;17779;50.942;4.026;2023-03-01T02:17:38;0.60;99.90
31133;DHT22;17779;50.942;4.026;2023-03-01T02:20:19;0.60;99.90
31133;DHT22;17779;50.942;4.026;2023-03-01T02:22:47;0.60;99.90
31133;DHT22;17779;50.942;4.026;2023-03-01T02:25:21;0.60;99.90
31133;DHT22;17779;50.942;4.026;2023-03-01T02:30:33;0.60;99.90
31133;DHT22;17779;50.942;4.026;2023-03-01T02:32:59;0.60;99.90
31133;DHT22;17779;50.942;4.026;2023-03-01T02:35:37;0.50;99.90
31133;DHT22;17779;50.942;4.026;2023-03-01T02:38:05;0.40;99.90
31133;DHT22;17779;50.942;4.026;2023-03-01T02:40:31;0.40;99.90
31133;DHT22;17779;50.942;4.026;2023-03-01T02:42:59;0.20;99.90
31133;DHT22;17779;50.942;4.026;2023-03-01T02:45:25;0.00;99.90
31133;DHT22;17779;50.942;4.026;2023-03-01T02:47:53;-0.10;99.90
31133;DHT22;17779;50.942;4.026;2023-03-01T02:53:00;-0.20;99.90
31133;DHT22;17779;50.942;4.026;2023-03-01T02:55:26;-0.20;99.90
31133;DHT22;17779;50.942;4.026;2023-03-01T02:57:53;-0.10;99.90
31133;DHT22;17779;50.942;4.026;2023-03-01T03:00:20;0.00;99.90
31133;DHT22;17779;50.942;4.026;2023-03-01T03:02:49;0.00;99.90
31133;DHT22;17779;50.942;4.026;2023-03-01T03:05:16;0.00;99.90
31133;DHT22;17779;50.942;4.026;2023-03-01T03:07:43;-0.10;99.90
31133;DHT22;17779;50.942;4.026;2023-03-01T03:10:12;0.00;99.90
31133;DHT22;17779;50.942;4.026;2023-03-01T03:12:38;0.10;99.90
31133;DHT22;17779;50.942;4.026;2023-03-01T03:15:05;0.10;99.90
31133;DHT22;17779;50.942;4.026;2023-03-01T03:17:35;0.20;99.90
31133;DHT22;17779;50.942;4.026;2023-03-01T03:20:01;0.20;99.90
31133;DHT22;17779;50.942;4.026;2023-03-01T03:22:28;0.20;99.90
31133;DHT22;17779;50.942;4.026;2023-03-01T03:24:54;0.10;99.90
31133;DHT22;17779;50.942;4.026;2023-03-01T03:27:19;0.00;99.90
31133;DHT22;17779;50.942;4.026;2023-03-01T03:29:45;0.10;99.90
31133;DHT22;17779;50.942;4.026;2023-03-01T03:32:11;0.20;99.90
31133;DHT22;17779;50.942;4.026;2023-03-01T03:34:37;0.10;99.90
31133;DHT22;17779;50.942;4.026;2023-03-01T03:37:02;-0.10;99.90
31133;DHT22;17779;50.942;4.026;2023-03-01T03:39:28;-0.20;99.90
31133;DHT22;17779;50.942;4.026;2023-03-01T03:42:00;-0.10;99.90
31133;DHT22;17779;50.942;4.026;2023-03-01T03:44:26;-0.10;99.90
31133;DHT22;17779;50.942;4.026;2023-03-01T03:46:51;0.00;99.90
31133;DHT22;17779;50.942;4.026;2023-03-01T03:49:17;0.00;99.90
31133;DHT22;17779;50.942;4.026;2023-03-01T03:51:44;-0.20;99.90
31133;DHT22;17779;50.942;4.026;2023-03-01T03:54:10;-0.30;99.90
31133;DHT22;17779;50.942;4.026;2023-03-01T03:56:36;-0.20;99.90
31133;DHT22;17779;50.942;4.026;2023-03-01T03:59:02;-0.20;99.90
31133;DHT22;17779;50.942;4.026;2023-03-01T04:01:27;-0.10;99.90
31133;DHT22;17779;50.942;4.026;2023-03-01T04:03:53;0.00;99.90
31133;DHT22;17779;50.942;4.026;2023-03-01T04:06:20;0.00;99.90
31133;DHT22;17779;50.942;4.026;2023-03-01T04:08:46;0.10;99.90
31133;DHT22;17779;50.942;4.026;2023-03-01T04:11:12;0.00;99.90
31133;DHT22;17779;50.942;4.026;2023-03-01T04:13:53;-0.20;99.90
31133;DHT22;17779;50.942;4.026;2023-03-01T04:16:19;-0.30;99.90
31133;DHT22;17779;50.942;4.026;2023-03-01T04:18:45;-0.20;99.90
31133;DHT22;17779;50.942;4.026;2023-03-01T04:21:11;-0.40;99.90
31133;DHT22;17779;50.942;4.026;2023-03-01T04:23:37;-0.40;99.90
31133;DHT22;17779;50.942;4.026;2023-03-01T04:26:03;-0.30;99.90
31133;DHT22;17779;50.942;4.026;2023-03-01T04:28:36;-0.10;99.90
31133;DHT22;17779;50.942;4.026;2023-03-01T04:31:12;-0.10;99.90
31133;DHT22;17779;50.942;4.026;2023-03-01T04:33:51;0.00;99.90
31133;DHT22;17779;50.942;4.026;2023-03-01T04:36:18;-0.10;99.90
31133;DHT22;17779;50.942;4.026;2023-03-01T04:38:45;-0.20;99.90
31133;DHT22;17779;50.942;4.026;2023-03-01T04:41:15;0.00;99.90
31133;DHT22;17779;50.942;4.026;2023-03-01T04:43:41;-0.20;99.90
31133;DHT22;17779;50.942;4.026;2023-03-01T04:46:07;-0.30;99.90
31133;DHT22;17779;50.942;4.026;2023-03-01T04:48:35;-0.20;99.90
31133;DHT22;17779;50.942;4.026;2023-03-01T04:51:01;-0.30;99.90
31133;DHT22;17779;50.942;4.026;2023-03-01T04:53:27;-0.20;99.90
31133;DHT22;17779;50.942;4.026;2023-03-01T04:55:53;-0.20;99.90
31133;DHT22;17779;50.942;4.026;2023-03-01T04:58:19;-0.40;99.90
31133;DHT22;17779;50.942;4.026;2023-03-01T05:00:46;-0.40;99.90
31133;DHT22;17779;50.942;4.026;2023-03-01T05:03:12;-0.40;99.90
31133;DHT22;17779;50.942;4.026;2023-03-01T05:05:39;-0.30;99.90
31133;DHT22;17779;50.942;4.026;2023-03-01T05:08:06;-0.20;99.90
31133;DHT22;17779;50.942;4.026;2023-03-01T05:10:32;-0.30;99.90
31133;DHT22;17779;50.942;4.026;2023-03-01T05:13:00;-0.30;99.90
31133;DHT22;17779;50.942;4.026;2023-03-01T05:15:26;-0.40;99.90
31133;DHT22;17779;50.942;4.026;2023-03-01T05:17:54;-0.50;99.90
31133;DHT22;17779;50.942;4.026;2023-03-01T05:20:20;-0.70;99.90
31133;DHT22;17779;50.942;4.026;2023-03-01T05:22:49;-0.80;99.90
31133;DHT22;17779;50.942;4.026;2023-03-01T05:25:15;-0.70;99.90
31133;DHT22;17779;50.942;4.026;2023-03-01T05:27:42;-0.70;99.90
31133;DHT22;17779;50.942;4.026;2023-03-01T05:30:08;-0.50;99.90
31133;DHT22;17779;50.942;4.026;2023-03-01T05:32:41;-0.50;99.90
31133;DHT22;17779;50.942;4.026;2023-03-01T05:35:08;-0.60;99.90
31133;DHT22;17779;50.942;4.026;2023-03-01T05:37:34;-0.70;99.90
31133;DHT22;17779;50.942;4.026;2023-03-01T05:40:01;-0.90;99.90
31133;DHT22;17779;50.942;4.026;2023-03-01T05:42:26;-0.80;99.90
31133;DHT22;17779;50.942;4.026;2023-03-01T05:44:52;-0.70;99.90
31133;DHT22;17779;50.942;4.026;2023-03-01T05:47:18;-0.70;99.90
31133;DHT22;17779;50.942;4.026;2023-03-01T05:49:44;-0.80;99.90
31133;DHT22;17779;50.942;4.026;2023-03-01T05:52:09;-0.80;99.90
31133;DHT22;17779;50.942;4.026;2023-03-01T05:54:35;-0.70;99.90
31133;DHT22;17779;50.942;4.026;2023-03-01T05:57:01;-0.70;99.90
31133;DHT22;17779;50.942;4.026;2023-03-01T05:59:27;-0.70;99.90
31133;DHT22;17779;50.942;4.026;2023-03-01T06:01:53;-0.80;99.90
31133;DHT22;17779;50.942;4.026;2023-03-01T06:04:19;-0.80;99.90
31133;DHT22;17779;50.942;4.026;2023-03-01T06:06:46;-0.80;99.90
31133;DHT22;17779;50.942;4.026;2023-03-01T06:09:14;-0.70;99.90
31133;DHT22;17779;50.942;4.026;2023-03-01T06:11:41;-0.60;99.90
31133;DHT22;17779;50.942;4.026;2023-03-01T06:14:07;-0.60;99.90
31133;DHT22;17779;50.942;4.026;2023-03-01T06:16:33;-0.40;99.90
31133;DHT22;17779;50.942;4.026;2023-03-01T06:18:59;-0.50;99.90
31133;DHT22;17779;50.942;4.026;2023-03-01T06:21:25;-0.50;99.90
31133;DHT22;17779;50.942;4.026;2023-03-01T06:23:50;-0.40;99.90
31133;DHT22;17779;50.942;4.026;2023-03-01T06:26:17;-0.50;99.90
31133;DHT22;17779;50.942;4.026;2023-03-01T06:28:43;-0.60;99.90
31133;DHT22;17779;50.942;4.026;2023-03-01T06:31:11;-0.60;99.90
31133;DHT22;17779;50.942;4.026;2023-03-01T06:33:40;-0.60;99.90
31133;DHT22;17779;50.942;4.026;2023-03-01T06:36:07;-0.40;99.90
31133;DHT22;17779;50.942;4.026;2023-03-01T06:38:38;-0.40;99.90
31133;DHT22;17779;50.942;4.026;2023-03-01T06:41:09;-0.40;99.90
31133;DHT22;17779;50.942;4.026;2023-03-01T06:43:35;-0.30;99.90
31133;DHT22;17779;50.942;4.026;2023-03-01T06:46:03;-0.40;99.90
31133;DHT22;17779;50.942;4.026;2023-03-01T06:48:30;-0.40;99.90
31133;DHT22;17779;50.942;4.026;2023-03-01T06:50:57;-0.20;99.90
31133;DHT22;17779;50.942;4.026;2023-03-01T06:53:23;-0.10;99.90
31133;DHT22;17779;50.942;4.026;2023-03-01T06:55:53;0.00;99.90
31133;DHT22;17779;50.942;4.026;2023-03-01T06:58:22;-0.10;99.90
31133;DHT22;17779;50.942;4.026;2023-03-01T07:00:48;-0.20;99.90
31133;DHT22;17779;50.942;4.026;2023-03-01T07:03:14;-0.40;99.90
31133;DHT22;17779;50.942;4.026;2023-03-01T07:05:40;-0.40;99.90
31133;DHT22;17779;50.942;4.026;2023-03-01T07:08:06;-0.50;99.90
31133;DHT22;17779;50.942;4.026;2023-03-01T07:10:32;-0.50;99.90
31133;DHT22;17779;50.942;4.026;2023-03-01T07:12:58;-0.40;99.90
31133;DHT22;17779;50.942;4.026;2023-03-01T07:15:24;0.20;99.90
31133;DHT22;17779;50.942;4.026;2023-03-01T07:17:50;0.60;99.90
31133;DHT22;17779;50.942;4.026;2023-03-01T07:20:20;0.90;99.90
31133;DHT22;17779;50.942;4.026;2023-03-01T07:22:51;1.50;99.90
31133;DHT22;17779;50.942;4.026;2023-03-01T07:25:20;2.10;99.90
31133;DHT22;17779;50.942;4.026;2023-03-01T07:27:51;2.80;99.90
31133;DHT22;17779;50.942;4.026;2023-03-01T07:30:17;3.70;99.90
31133;DHT22;17779;50.942;4.026;2023-03-01T07:32:43;5.10;99.90
31133;DHT22;17779;50.942;4.026;2023-03-01T07:35:10;6.00;99.90
31133;DHT22;17779;50.942;4.026;2023-03-01T07:37:36;5.90;99.90
31133;DHT22;17779;50.942;4.026;2023-03-01T07:40:02;5.80;99.90
31133;DHT22;17779;50.942;4.026;2023-03-01T07:42:28;6.10;99.90
31133;DHT22;17779;50.942;4.026;2023-03-01T07:44:53;6.70;99.90
31133;DHT22;17779;50.942;4.026;2023-03-01T07:47:19;7.40;99.90
31133;DHT22;17779;50.942;4.026;2023-03-01T07:49:45;8.20;99.90
31133;DHT22;17779;50.942;4.026;2023-03-01T07:52:11;9.20;99.90
31133;DHT22;17779;50.942;4.026;2023-03-01T07:54:37;9.80;99.90
31133;DHT22;17779;50.942;4.026;2023-03-01T07:57:03;10.60;99.90
31133;DHT22;17779;50.942;4.026;2023-03-01T07:59:29;11.70;99.90
31133;DHT22;17779;50.942;4.026;2023-03-01T08:01:55;12.20;99.90
31133;DHT22;17779;50.942;4.026;2023-03-01T08:04:21;11.80;99.30
31133;DHT22;17779;50.942;4.026;2023-03-01T08:06:47;11.00;99.50
31133;DHT22;17779;50.942;4.026;2023-03-01T08:09:13;10.70;99.70
31133;DHT22;17779;50.942;4.026;2023-03-01T08:11:39;11.40;98.70
31133;DHT22;17779;50.942;4.026;2023-03-01T08:14:05;11.10;98.90
31133;DHT22;17779;50.942;4.026;2023-03-01T08:16:31;11.00;98.70
31133;DHT22;17779;50.942;4.026;2023-03-01T08:19:02;11.90;97.80
31133;DHT22;17779;50.942;4.026;2023-03-01T08:21:28;12.80;96.20
31133;DHT22;17779;50.942;4.026;2023-03-01T08:23:54;13.10;94.60
31133;DHT22;17779;50.942;4.026;2023-03-01T08:26:20;12.00;94.80
31133;DHT22;17779;50.942;4.026;2023-03-01T08:28:47;11.70;95.30
31133;DHT22;17779;50.942;4.026;2023-03-01T08:31:14;11.50;95.60
31133;DHT22;17779;50.942;4.026;2023-03-01T08:33:39;12.60;94.40
31133;DHT22;17779;50.942;4.026;2023-03-01T08:36:05;12.10;94.40
31133;DHT22;17779;50.942;4.026;2023-03-01T08:38:32;11.30;94.60
31133;DHT22;17779;50.942;4.026;2023-03-01T08:41:02;11.20;94.80
31133;DHT22;17779;50.942;4.026;2023-03-01T08:43:28;11.00;94.60
31133;DHT22;17779;50.942;4.026;2023-03-01T08:45:54;10.90;94.70
31133;DHT22;17779;50.942;4.026;2023-03-01T08:48:20;10.30;96.10
31133;DHT22;17779;50.942;4.026;2023-03-01T08:50:46;10.50;95.70
31133;DHT22;17779;50.942;4.026;2023-03-01T08:53:12;9.90;96.70
31133;DHT22;17779;50.942;4.026;2023-03-01T08:55:38;10.40;96.20
31133;DHT22;17779;50.942;4.026;2023-03-01T08:58:03;11.00;96.00
31133;DHT22;17779;50.942;4.026;2023-03-01T09:00:29;11.60;94.70
31133;DHT22;17779;50.942;4.026;2023-03-01T09:02:55;11.50;94.80
31133;DHT22;17779;50.942;4.026;2023-03-01T09:05:20;11.50;94.40
31133;DHT22;17779;50.942;4.026;2023-03-01T09:07:46;11.70;93.50
31133;DHT22;17779;50.942;4.026;2023-03-01T09:10:12;10.90;94.60
31133;DHT22;17779;50.942;4.026;2023-03-01T09:12:38;12.10;93.90
31133;DHT22;17779;50.942;4.026;2023-03-01T09:15:03;12.50;92.30
31133;DHT22;17779;50.942;4.026;2023-03-01T09:17:29;11.30;92.90
31133;DHT22;17779;50.942;4.026;2023-03-01T09:19:55;11.00;94.50
31133;DHT22;17779;50.942;4.026;2023-03-01T09:22:21;11.80;93.20
31133;DHT22;17779;50.942;4.026;2023-03-01T09:24:46;10.80;93.30
31133;DHT22;17779;50.942;4.026;2023-03-01T09:27:12;11.60;93.60
31133;DHT22;17779;50.942;4.026;2023-03-01T09:29:39;13.20;91.60
31133;DHT22;17779;50.942;4.026;2023-03-01T09:32:05;15.30;88.90
31133;DHT22;17779;50.942;4.026;2023-03-01T09:34:33;14.10;84.20
31133;DHT22;17779;50.942;4.026;2023-03-01T09:37:19;13.70;87.20
31133;DHT22;17779;50.942;4.026;2023-03-01T09:39:44;12.60;86.40
31133;DHT22;17779;50.942;4.026;2023-03-01T09:42:10;13.00;86.90
31133;DHT22;17779;50.942;4.026;2023-03-01T09:44:38;13.40;84.30
31133;DHT22;17779;50.942;4.026;2023-03-01T09:50:04;13.20;85.70
31133;DHT22;17779;50.942;4.026;2023-03-01T09:53:15;14.40;82.40
31133;DHT22;17779;50.942;4.026;2023-03-01T09:55:25;14.40;81.50
31133;DHT22;17779;50.942;4.026;2023-03-01T09:57:55;13.80;81.00
31133;DHT22;17779;50.942;4.026;2023-03-01T10:05:44;15.50;78.50
31133;DHT22;17779;50.942;4.026;2023-03-01T10:10:38;12.70;80.00
31133;DHT22;17779;50.942;4.026;2023-03-01T10:18:49;12.80;79.50
31133;DHT22;17779;50.942;4.026;2023-03-01T10:21:18;12.10;82.00
31133;DHT22;17779;50.942;4.026;2023-03-01T10:23:44;12.70;81.60
31133;DHT22;17779;50.942;4.026;2023-03-01T10:29:03;13.80;78.40
31133;DHT22;17779;50.942;4.026;2023-03-01T10:31:35;12.30;79.50
31133;DHT22;17779;50.942;4.026;2023-03-01T10:34:08;12.80;80.00
31133;DHT22;17779;50.942;4.026;2023-03-01T10:36:35;13.50;78.20
31133;DHT22;17779;50.942;4.026;2023-03-01T10:39:02;13.40;79.00
31133;DHT22;17779;50.942;4.026;2023-03-01T10:41:31;12.70;79.00
31133;DHT22;17779;50.942;4.026;2023-03-01T10:43:57;13.00;79.30
31133;DHT22;17779;50.942;4.026;2023-03-01T10:46:30;13.10;79.10
31133;DHT22;17779;50.942;4.026;2023-03-01T10:51:41;14.10;76.90
31133;DHT22;17779;50.942;4.026;2023-03-01T10:56:53;12.80;77.20
31133;DHT22;17779;50.942;4.026;2023-03-01T10:59:28;13.10;78.90
31133;DHT22;17779;50.942;4.026;2023-03-01T11:02:37;13.20;76.60
31133;DHT22;17779;50.942;4.026;2023-03-01T11:07:23;12.70;77.60
31133;DHT22;17779;50.942;4.026;2023-03-01T11:09:49;13.90;76.90
31133;DHT22;17779;50.942;4.026;2023-03-01T11:12:15;15.20;74.10
31133;DHT22;17779;50.942;4.026;2023-03-01T11:14:48;14.10;72.40
31133;DHT22;17779;50.942;4.026;2023-03-01T11:19:40;12.60;75.70
31133;DHT22;17779;50.942;4.026;2023-03-01T11:22:19;13.20;76.30
31133;DHT22;17779;50.942;4.026;2023-03-01T11:24:53;13.30;74.70
31133;DHT22;17779;50.942;4.026;2023-03-01T11:29:46;12.40;77.00
31133;DHT22;17779;50.942;4.026;2023-03-01T11:32:16;13.10;74.90
31133;DHT22;17779;50.942;4.026;2023-03-01T11:34:45;12.40;75.30
31133;DHT22;17779;50.942;4.026;2023-03-01T11:39:52;13.60;73.50
31133;DHT22;17779;50.942;4.026;2023-03-01T11:42:43;13.90;74.30
31133;DHT22;17779;50.942;4.026;2023-03-01T11:45:11;14.30;73.20
31133;DHT22;17779;50.942;4.026;2023-03-01T11:55:17;11.80;79.20
31133;DHT22;17779;50.942;4.026;2023-03-01T12:05:54;12.10;80.10
31133;DHT22;17779;50.942;4.026;2023-03-01T12:11:07;13.10;77.50
31133;DHT22;17779;50.942;4.026;2023-03-01T12:13:46;13.50;75.70
31133;DHT22;17779;50.942;4.026;2023-03-01T12:19:00;13.40;75.00
31133;DHT22;17779;50.942;4.026;2023-03-01T12:29:18;17.70;67.20
31133;DHT22;17779;50.942;4.026;2023-03-01T12:42:21;16.20;65.90
31133;DHT22;17779;50.942;4.026;2023-03-01T12:44:53;16.70;64.50
31133;DHT22;17779;50.942;4.026;2023-03-01T12:49:51;14.70;66.00
31133;DHT22;17779;50.942;4.026;2023-03-01T12:52:29;15.30;65.80
31133;DHT22;17779;50.942;4.026;2023-03-01T12:54:59;15.00;65.80
31133;DHT22;17779;50.942;4.026;2023-03-01T12:57:37;15.80;65.50
31133;DHT22;17779;50.942;4.026;2023-03-01T13:02:52;16.90;62.50
31133;DHT22;17779;50.942;4.026;2023-03-01T13:20:23;16.50;62.40
31133;DHT22;17779;50.942;4.026;2023-03-01T13:22:59;17.90;60.20
31133;DHT22;17779;50.942;4.026;2023-03-01T13:25:26;16.80;59.90
31133;DHT22;17779;50.942;4.026;2023-03-01T13:27:52;16.20;61.80
31133;DHT22;17779;50.942;4.026;2023-03-01T13:30:38;15.40;63.80
31133;DHT22;17779;50.942;4.026;2023-03-01T13:35:48;14.90;62.50
31133;DHT22;17779;50.942;4.026;2023-03-01T13:40:59;14.30;64.00
31133;DHT22;17779;50.942;4.026;2023-03-01T13:43:29;14.40;63.50
31133;DHT22;17779;50.942;4.026;2023-03-01T13:45:55;13.90;63.70
31133;DHT22;17779;50.942;4.026;2023-03-01T13:48:24;13.20;65.60
31133;DHT22;17779;50.942;4.026;2023-03-01T13:50:51;13.30;66.50
31133;DHT22;17779;50.942;4.026;2023-03-01T13:53:19;12.50;67.70
31133;DHT22;17779;50.942;4.026;2023-03-01T13:55:45;12.00;69.90
31133;DHT22;17779;50.942;4.026;2023-03-01T13:58:21;10.80;72.40
31133;DHT22;17779;50.942;4.026;2023-03-01T14:00:47;9.70;75.70
31133;DHT22;17779;50.942;4.026;2023-03-01T14:03:17;9.40;77.80
31133;DHT22;17779;50.942;4.026;2023-03-01T14:05:56;9.00;78.70
31133;DHT22;17779;50.942;4.026;2023-03-01T14:08:24;8.90;79.50
31133;DHT22;17779;50.942;4.026;2023-03-01T14:16:12;8.90;79.10
31133;DHT22;17779;50.942;4.026;2023-03-01T14:18:46;8.50;81.00
31133;DHT22;17779;50.942;4.026;2023-03-01T14:21:13;8.60;82.30
31133;DHT22;17779;50.942;4.026;2023-03-01T14:23:40;8.50;83.30
31133;DHT22;17779;50.942;4.026;2023-03-01T14:26:07;8.50;83.80
31133;DHT22;17779;50.942;4.026;2023-03-01T14:28:34;8.60;84.20
31133;DHT22;17779;50.942;4.026;2023-03-01T14:31:03;8.80;84.30
31133;DHT22;17779;50.942;4.026;2023-03-01T14:36:02;8.60;83.90
31133;DHT22;17779;50.942;4.026;2023-03-01T14:38:42;8.40;84.60
31133;DHT22;17779;50.942;4.026;2023-03-01T14:41:09;8.60;85.10
31133;DHT22;17779;50.942;4.026;2023-03-01T14:43:37;8.60;84.80
31133;DHT22;17779;50.942;4.026;2023-03-01T14:46:03;8.60;84.20
31133;DHT22;17779;50.942;4.026;2023-03-01T14:48:29;8.50;84.40
31133;DHT22;17779;50.942;4.026;2023-03-01T14:50:55;8.40;84.70
31133;DHT22;17779;50.942;4.026;2023-03-01T14:53:23;8.30;84.00
31133;DHT22;17779;50.942;4.026;2023-03-01T14:55:53;8.30;84.90
31133;DHT22;17779;50.942;4.026;2023-03-01T14:58:21;8.20;85.20
31133;DHT22;17779;50.942;4.026;2023-03-01T15:00:51;8.20;85.10
31133;DHT22;17779;50.942;4.026;2023-03-01T15:03:23;8.00;85.50
31133;DHT22;17779;50.942;4.026;2023-03-01T15:05:50;8.00;85.80
31133;DHT22;17779;50.942;4.026;2023-03-01T15:08:22;8.00;86.10
31133;DHT22;17779;50.942;4.026;2023-03-01T15:11:04;8.00;86.90
31133;DHT22;17779;50.942;4.026;2023-03-01T15:13:33;8.10;86.70
31133;DHT22;17779;50.942;4.026;2023-03-01T15:16:04;8.00;86.30
31133;DHT22;17779;50.942;4.026;2023-03-01T15:18:31;7.80;86.60
31133;DHT22;17779;50.942;4.026;2023-03-01T15:21:17;8.00;86.90
31133;DHT22;17779;50.942;4.026;2023-03-01T15:23:49;8.00;87.70
31133;DHT22;17779;50.942;4.026;2023-03-01T15:26:58;8.00;87.30
31133;DHT22;17779;50.942;4.026;2023-03-01T15:29:04;8.00;87.40
31133;DHT22;17779;50.942;4.026;2023-03-01T15:31:42;7.90;87.50
31133;DHT22;17779;50.942;4.026;2023-03-01T15:34:09;7.90;88.30
31133;DHT22;17779;50.942;4.026;2023-03-01T15:36:43;7.90;87.90
31133;DHT22;17779;50.942;4.026;2023-03-01T15:41:50;7.90;88.60
31133;DHT22;17779;50.942;4.026;2023-03-01T15:44:17;8.00;88.50
31133;DHT22;17779;50.942;4.026;2023-03-01T15:46:46;8.00;88.90
31133;DHT22;17779;50.942;4.026;2023-03-01T15:51:57;7.90;88.10
31133;DHT22;17779;50.942;4.026;2023-03-01T15:54:24;7.80;88.40
31133;DHT22;17779;50.942;4.026;2023-03-01T15:56:50;7.70;88.70
31133;DHT22;17779;50.942;4.026;2023-03-01T15:59:16;7.60;88.90
31133;DHT22;17779;50.942;4.026;2023-03-01T16:01:42;7.60;89.20
31133;DHT22;17779;50.942;4.026;2023-03-01T16:04:11;7.50;89.70
31133;DHT22;17779;50.942;4.026;2023-03-01T16:06:48;7.60;89.90
31133;DHT22;17779;50.942;4.026;2023-03-01T16:09:23;7.70;90.00
31133;DHT22;17779;50.942;4.026;2023-03-01T16:11:49;7.70;89.70
31133;DHT22;17779;50.942;4.026;2023-03-01T16:14:14;7.70;90.00
31133;DHT22;17779;50.942;4.026;2023-03-01T16:16:42;7.60;89.80
31133;DHT22;17779;50.942;4.026;2023-03-01T16:19:07;7.60;89.90
31133;DHT22;17779;50.942;4.026;2023-03-01T16:21:33;7.60;89.90
31133;DHT22;17779;50.942;4.026;2023-03-01T16:23:59;7.50;90.20
31133;DHT22;17779;50.942;4.026;2023-03-01T16:26:25;7.50;90.50
31133;DHT22;17779;50.942;4.026;2023-03-01T16:28:54;7.40;90.70
31133;DHT22;17779;50.942;4.026;2023-03-01T16:31:20;7.30;90.80
31133;DHT22;17779;50.942;4.026;2023-03-01T16:33:45;7.30;91.00
31133;DHT22;17779;50.942;4.026;2023-03-01T16:36:18;7.20;91.00
31133;DHT22;17779;50.942;4.026;2023-03-01T16:38:44;7.20;91.10
31133;DHT22;17779;50.942;4.026;2023-03-01T16:41:11;7.20;91.20
31133;DHT22;17779;50.942;4.026;2023-03-01T16:43:37;7.20;91.50
31133;DHT22;17779;50.942;4.026;2023-03-01T16:46:09;7.20;91.80
31133;DHT22;17779;50.942;4.026;2023-03-01T16:48:35;7.10;92.00
31133;DHT22;17779;50.942;4.026;2023-03-01T16:51:01;7.00;92.50
31133;DHT22;17779;50.942;4.026;2023-03-01T16:53:27;7.00;92.80
31133;DHT22;17779;50.942;4.026;2023-03-01T16:55:53;7.00;93.40
31133;DHT22;17779;50.942;4.026;2023-03-01T16:58:19;7.00;93.30
31133;DHT22;17779;50.942;4.026;2023-03-01T17:00:45;6.90;93.70
31133;DHT22;17779;50.942;4.026;2023-03-01T17:03:11;6.90;94.00
31133;DHT22;17779;50.942;4.026;2023-03-01T17:05:42;6.90;94.00
31133;DHT22;17779;50.942;4.026;2023-03-01T17:08:08;6.80;94.00
31133;DHT22;17779;50.942;4.026;2023-03-01T17:10:33;6.80;94.40
31133;DHT22;17779;50.942;4.026;2023-03-01T17:12:59;6.70;94.90
31133;DHT22;17779;50.942;4.026;2023-03-01T17:15:25;6.60;95.20
31133;DHT22;17779;50.942;4.026;2023-03-01T17:17:51;6.60;95.40
31133;DHT22;17779;50.942;4.026;2023-03-01T17:20:16;6.50;95.40
31133;DHT22;17779;50.942;4.026;2023-03-01T17:22:43;6.50;95.50
31133;DHT22;17779;50.942;4.026;2023-03-01T17:25:09;6.50;95.60
31133;DHT22;17779;50.942;4.026;2023-03-01T17:27:38;6.40;95.70
31133;DHT22;17779;50.942;4.026;2023-03-01T17:30:05;6.30;96.00
31133;DHT22;17779;50.942;4.026;2023-03-01T17:32:31;6.30;96.40
31133;DHT22;17779;50.942;4.026;2023-03-01T17:34:57;6.30;96.60
31133;DHT22;17779;50.942;4.026;2023-03-01T17:37:23;6.30;96.90
31133;DHT22;17779;50.942;4.026;2023-03-01T17:39:49;6.20;97.10
31133;DHT22;17779;50.942;4.026;2023-03-01T17:42:15;6.10;97.30